Ashwaubenon, Wisconsin
Current Conditions -  °F | °C
As of 12:53 PM on Friday 31 Oct 2014 (Local Time) from KGRB Reporting Station
Broken Clouds Broken Clouds  
Wind Chill: -2°   Ceiling: 4800
Heat Index:   Visibility: 10mi
Dew Point: -6°   Wind: 26mph
Humidity: 49%   Direction: 20°NNE
Pressure: 30.31"   Gusts: 40mph
Location:  44.48°N, 88.07°W
Report Text: KGRB 311753Z 02023G35KT 10SM BKN048 04/M06 A3031 RMK AO2 PK WND 01037/1700 SLP273 T00391061 10039 20011 50013
Loading
Personal Weather Stations






























Interactive Weather Map
Tropical Storm Tracking
New forecast layout! Learn more

10-Day Weather Forecast

Advertisements
Track Severe Weather on mobile